Time;durP1;ratioP1;P1;durP2;ratioP2;P2;SDS_P1;SDS_P2;PMS_P1;PMS_P2;Temp;Humidity;BMP_temperature;BMP_pressure;BME280_temperature;BME280_humidity;BME280_pressure;Samples;Min_cycle;Max_cycle;Signal;HPM_P1;HPM_P2
2021/07/14 00:00:19;;;;;;;10.55;8.68;;;22.90;92.00;;;;;;4992118;28;20109;-68
2021/07/14 00:02:49;;;;;;;8.88;7.97;;;22.90;92.00;;;;;;4992303;28;20037;-68
2021/07/14 00:05:17;;;;;;;10.90;8.93;;;22.90;92.00;;;;;;5009181;28;20029;-68
2021/07/14 00:07:44;;;;;;;10.70;9.52;;;22.90;91.90;;;;;;5010588;28;20073;-68
2021/07/14 00:10:14;;;;;;;11.93;9.48;;;22.90;92.10;;;;;;5010141;28;20037;-68
2021/07/14 00:13:01;;;;;;;10.20;9.05;;;22.80;92.10;;;;;;5011744;28;20120;-68
2021/07/14 00:23:10;;;;;;;10.75;9.15;;;22.80;92.20;;;;;;4992096;28;19999;-68
2021/07/14 00:25:36;;;;;;;10.07;8.70;;;22.80;92.20;;;;;;4991769;28;20073;-68
2021/07/14 00:28:02;;;;;;;10.70;8.40;;;22.80;92.30;;;;;;4990443;28;20033;-68
2021/07/14 00:30:30;;;;;;;9.52;8.57;;;22.80;92.30;;;;;;4991756;28;20034;-68
2021/07/14 00:32:55;;;;;;;9.27;8.27;;;22.80;92.30;;;;;;4991747;28;20042;-68
2021/07/14 00:35:21;;;;;;;9.73;8.82;;;22.80;92.40;;;;;;4991330;28;20026;-68
2021/07/14 00:37:47;;;;;;;10.27;9.05;;;22.80;92.30;;;;;;4990520;28;20493;-68
2021/07/14 00:40:13;;;;;;;10.10;8.98;;;22.80;92.30;;;;;;4991369;28;20477;-68
2021/07/14 00:42:40;;;;;;;10.35;9.25;;;22.80;92.30;;;;;;4991439;28;20515;-68
2021/07/14 00:45:07;;;;;;;17.23;10.45;;;22.80;92.40;;;;;;4991311;28;20034;-68
2021/07/14 00:47:36;;;;;;;11.02;9.93;;;22.70;92.50;;;;;;4995748;28;20101;-68
2021/07/14 00:50:05;;;;;;;11.15;8.73;;;22.70;92.70;;;;;;5006262;28;20408;-70
2021/07/14 00:52:31;;;;;;;10.90;9.75;;;22.60;92.70;;;;;;4987971;28;20045;-68
2021/07/14 00:54:58;;;;;;;10.02;8.68;;;22.60;92.70;;;;;;4994062;28;20061;-68
2021/07/14 00:57:26;;;;;;;11.95;8.90;;;22.60;92.70;;;;;;5009899;28;20034;-68
2021/07/14 00:59:52;;;;;;;11.25;9.75;;;22.60;92.80;;;;;;5011355;28;20380;-68
2021/07/14 01:02:18;;;;;;;10.77;8.90;;;22.60;92.80;;;;;;5017471;28;20513;-68
2021/07/14 01:04:49;;;;;;;10.57;9.10;;;22.60;92.80;;;;;;5004285;28;20049;-68
2021/07/14 01:07:24;;;;;;;10.40;9.40;;;22.50;92.90;;;;;;4996720;28;20575;-68
2021/07/14 01:10:04;;;;;;;10.13;8.80;;;22.50;92.90;;;;;;4997693;28;20038;-68
2021/07/14 01:12:39;;;;;;;11.70;9.32;;;22.60;92.90;;;;;;4997660;28;20057;-67
2021/07/14 01:15:14;;;;;;;10.60;9.52;;;22.60;92.90;;;;;;4996013;28;20037;-68
2021/07/14 01:17:56;;;;;;;12.60;10.27;;;22.50;92.90;;;;;;4996187;28;20041;-68
2021/07/14 01:20:27;;;;;;;13.85;11.10;;;22.50;92.90;;;;;;4997715;28;20038;-68
2021/07/14 01:23:00;;;;;;;14.15;9.52;;;22.50;93.10;;;;;;5017184;28;20026;-68
2021/07/14 01:25:52;;;;;;;11.60;9.30;;;22.50;93.10;;;;;;5017365;28;20034;-68
2021/07/14 01:28:20;;;;;;;10.45;9.35;;;22.50;93.00;;;;;;5016041;28;20079;-68
2021/07/14 01:30:48;;;;;;;11.73;9.55;;;22.50;93.10;;;;;;5017286;28;20475;-68
2021/07/14 01:33:18;;;;;;;10.35;9.10;;;22.50;93.00;;;;;;5017343;28;20032;-68
2021/07/14 01:35:46;;;;;;;11.93;8.80;;;22.50;93.00;;;;;;5017173;28;20030;-68
2021/07/14 01:38:14;;;;;;;10.00;8.98;;;22.50;93.00;;;;;;5015769;28;20037;-68
2021/07/14 01:40:41;;;;;;;9.93;8.90;;;22.50;93.00;;;;;;5017162;28;20037;-68
2021/07/14 01:43:09;;;;;;;12.77;8.95;;;22.50;93.00;;;;;;5017321;28;20034;-68
2021/07/14 01:45:38;;;;;;;9.55;8.55;;;22.40;93.00;;;;;;5017060;28;20395;-67
2021/07/14 01:48:05;;;;;;;10.30;9.10;;;22.40;93.00;;;;;;5005408;28;20096;-67
2021/07/14 01:50:33;;;;;;;11.25;9.70;;;22.40;93.00;;;;;;5014437;28;20679;-67
2021/07/14 01:52:59;;;;;;;11.43;9.02;;;22.40;93.00;;;;;;4993727;28;20037;-68
2021/07/14 01:55:27;;;;;;;11.85;10.50;;;22.40;93.10;;;;;;5003695;28;20030;-68
2021/07/14 01:57:54;;;;;;;10.25;9.05;;;22.40;93.10;;;;;;5014646;28;20575;-67
2021/07/14 02:00:21;;;;;;;12.38;10.82;;;22.40;93.00;;;;;;5016958;28;20049;-68
2021/07/14 02:03:18;;;;;;;11.27;10.00;;;22.30;93.10;;;;;;5015594;28;20025;-68
2021/07/14 02:05:36;;;;;;;10.55;8.82;;;22.30;93.10;;;;;;4977765;28;20039;-68
2021/07/14 02:08:03;;;;;;;10.70;9.38;;;22.30;93.10;;;;;;4976892;28;20061;-68
2021/07/14 02:10:31;;;;;;;10.60;9.43;;;22.30;93.10;;;;;;4977960;28;20022;-68
2021/07/14 02:12:58;;;;;;;12.77;9.60;;;22.30;93.20;;;;;;4974833;28;20039;-68
2021/07/14 02:15:26;;;;;;;10.75;9.23;;;22.20;93.10;;;;;;4973130;28;20027;-68
2021/07/14 02:17:51;;;;;;;10.70;9.52;;;22.20;93.10;;;;;;4988439;28;20031;-68
2021/07/14 02:20:19;;;;;;;10.82;9.10;;;22.30;93.10;;;;;;4976472;28;20496;-68
2021/07/14 02:22:46;;;;;;;9.55;8.57;;;22.30;93.10;;;;;;5013609;28;20026;-68
2021/07/14 02:25:12;;;;;;;9.98;8.98;;;22.30;93.00;;;;;;5013357;28;20484;-68
2021/07/14 02:27:39;;;;;;;11.82;10.20;;;22.30;93.10;;;;;;5012163;28;20130;-68
2021/07/14 02:30:19;;;;;;;11.57;8.75;;;22.30;93.00;;;;;;5012002;28;20030;-68
2021/07/14 02:32:56;;;;;;;9.68;8.63;;;22.30;93.00;;;;;;5013395;28;20038;-68
2021/07/14 02:35:23;;;;;;;10.57;9.10;;;22.30;93.00;;;;;;5013067;28;20572;-68
2021/07/14 02:37:55;;;;;;;10.70;9.60;;;22.20;93.00;;;;;;5011980;28;20400;-68
2021/07/14 02:40:32;;;;;;;10.68;9.57;;;22.30;93.10;;;;;;5013099;28;20037;-68
2021/07/14 02:43:01;;;;;;;10.32;9.32;;;22.30;93.10;;;;;;5013341;28;20041;-68
2021/07/14 02:45:29;;;;;;;10.98;9.35;;;22.30;93.00;;;;;;5013084;28;20030;-68
2021/07/14 02:47:56;;;;;;;11.38;9.15;;;22.30;93.10;;;;;;5002787;28;20435;-68
2021/07/14 02:50:25;;;;;;;10.88;9.77;;;22.30;93.10;;;;;;5010825;28;20049;-68
2021/07/14 02:52:59;;;;;;;11.88;10.57;;;22.30;93.00;;;;;;4990814;28;20065;-67
2021/07/14 02:55:29;;;;;;;13.05;9.48;;;22.20;93.00;;;;;;5000107;28;20030;-67
2021/07/14 02:57:57;;;;;;;10.70;9.40;;;22.20;93.20;;;;;;5012093;28;20033;-67
2021/07/14 03:00:24;;;;;;;10.02;8.57;;;22.20;93.10;;;;;;5001234;28;20445;-67
2021/07/14 03:02:51;;;;;;;12.00;9.43;;;22.20;93.10;;;;;;5000121;28;20034;-67
2021/07/14 03:05:18;;;;;;;11.02;9.45;;;22.20;93.00;;;;;;5008104;28;20541;-67
2021/07/14 03:07:45;;;;;;;13.23;9.75;;;22.20;93.00;;;;;;5008161;28;20113;-67
2021/07/14 03:10:16;;;;;;;13.50;10.07;;;22.20;93.10;;;;;;5003164;28;20037;-67
2021/07/14 03:12:44;;;;;;;11.93;10.07;;;22.10;93.00;;;;;;5006272;28;20144;-67
2021/07/14 03:15:11;;;;;;;13.25;9.57;;;22.10;93.10;;;;;;5012623;28;20045;-67
2021/07/14 03:17:38;;;;;;;12.40;9.57;;;22.10;93.10;;;;;;4992963;28;20038;-67
2021/07/14 03:20:16;;;;;;;11.30;10.10;;;22.10;93.20;;;;;;4992624;28;20034;-67
2021/07/14 03:22:48;;;;;;;9.60;8.60;;;22.10;93.20;;;;;;4989835;28;20050;-67
2021/07/14 03:25:15;;;;;;;13.10;9.48;;;22.10;93.20;;;;;;5002253;28;20490;-67
2021/07/14 03:27:44;;;;;;;12.07;10.20;;;22.10;93.20;;;;;;5011358;28;20480;-67
2021/07/14 03:30:12;;;;;;;10.43;9.38;;;22.00;93.30;;;;;;5012311;28;20030;-67
2021/07/14 03:32:39;;;;;;;12.00;10.27;;;22.00;93.30;;;;;;5011518;28;20041;-67
2021/07/14 03:35:06;;;;;;;13.75;10.68;;;21.90;93.30;;;;;;5001206;28;20061;-67
2021/07/14 03:37:34;;;;;;;10.80;9.70;;;21.90;93.40;;;;;;5004513;28;20034;-67
2021/07/14 03:40:04;;;;;;;12.52;9.60;;;21.90;93.40;;;;;;4992419;28;20034;-67
2021/07/14 03:42:31;;;;;;;11.82;10.43;;;21.90;93.40;;;;;;5004710;28;20102;-67
2021/07/14 03:44:58;;;;;;;11.55;9.77;;;21.90;93.40;;;;;;5011796;28;20041;-67
2021/07/14 03:47:25;;;;;;;12.05;9.77;;;21.90;93.30;;;;;;5005797;28;20022;-67
2021/07/14 03:49:51;;;;;;;13.32;10.65;;;21.90;93.30;;;;;;5005295;28;20034;-67
2021/07/14 03:52:20;;;;;;;13.40;10.07;;;21.90;93.40;;;;;;4990410;28;20061;-67
2021/07/14 03:54:47;;;;;;;11.20;9.52;;;21.90;93.40;;;;;;4993383;28;20034;-68
2021/07/14 03:57:13;;;;;;;12.63;10.45;;;21.90;93.40;;;;;;5010721;28;20034;-67
2021/07/14 03:59:40;;;;;;;10.90;9.70;;;21.90;93.40;;;;;;5011657;28;20033;-67
2021/07/14 04:02:12;;;;;;;9.98;8.98;;;21.90;93.40;;;;;;5011893;28;20021;-67
2021/07/14 04:04:38;;;;;;;13.88;9.57;;;21.90;93.30;;;;;;4998133;28;20460;-67
2021/07/14 04:07:16;;;;;;;12.00;10.63;;;21.90;93.40;;;;;;4992466;28;20054;-67
2021/07/14 04:09:46;;;;;;;10.70;9.60;;;21.90;93.40;;;;;;5002714;28;20037;-67
2021/07/14 04:12:13;;;;;;;12.60;10.82;;;21.90;93.40;;;;;;4999404;28;20520;-67
2021/07/14 04:14:39;;;;;;;11.38;10.23;;;21.90;93.40;;;;;;4989120;28;20477;-67
2021/07/14 04:17:05;;;;;;;9.93;8.93;;;21.90;93.40;;;;;;5006874;28;20030;-67
2021/07/14 04:19:32;;;;;;;12.38;10.05;;;21.90;93.40;;;;;;5011481;28;20069;-67
2021/07/14 04:21:57;;;;;;;15.05;10.45;;;21.90;93.30;;;;;;5011117;28;20507;-67
2021/07/14 04:24:24;;;;;;;11.52;10.00;;;21.90;93.30;;;;;;5005101;28;20026;-67
2021/07/14 04:26:50;;;;;;;11.82;10.50;;;21.90;93.30;;;;;;4991326;28;20034;-67
2021/07/14 04:29:16;;;;;;;13.43;10.27;;;21.90;93.30;;;;;;4990908;28;20031;-67
2021/07/14 04:31:42;;;;;;;11.95;10.45;;;21.90;93.40;;;;;;4991630;28;20034;-67
2021/07/14 04:34:09;;;;;;;16.05;11.73;;;21.90;93.40;;;;;;4991433;28;20060;-67
2021/07/14 04:36:35;;;;;;;15.10;10.90;;;21.80;93.50;;;;;;4991119;28;20117;-67
2021/07/14 04:39:03;;;;;;;16.23;11.18;;;21.80;93.60;;;;;;4990124;28;20579;-67
2021/07/14 04:41:29;;;;;;;12.07;10.38;;;21.80;93.70;;;;;;4998037;28;20483;-67
2021/07/14 04:43:58;;;;;;;13.43;11.77;;;21.70;93.70;;;;;;5019796;22;20046;-90
2021/07/14 04:46:24;;;;;;;11.45;10.25;;;21.80;93.70;;;;;;4992823;28;20030;-91
2021/07/14 04:48:50;;;;;;;15.05;12.00;;;21.80;93.70;;;;;;5031742;28;20046;-90
2021/07/14 04:51:16;;;;;;;13.38;11.38;;;21.80;93.80;;;;;;5038018;28;20100;-90
2021/07/14 04:53:41;;;;;;;14.35;11.75;;;21.70;93.70;;;;;;5033282;28;20363;-91
2021/07/14 04:56:08;;;;;;;12.77;11.05;;;21.80;93.80;;;;;;5019344;28;20479;-89
2021/07/14 04:58:34;;;;;;;13.18;11.43;;;21.80;93.70;;;;;;5036964;28;20030;-91
2021/07/14 05:01:00;;;;;;;13.43;10.63;;;21.80;93.70;;;;;;5041210;28;20049;-91
2021/07/14 05:03:25;;;;;;;13.90;11.05;;;21.90;93.80;;;;;;5035403;28;20030;-91
2021/07/14 05:05:52;;;;;;;14.60;11.23;;;21.90;93.70;;;;;;5018559;28;20034;-90
2021/07/14 05:08:20;;;;;;;12.18;10.88;;;21.90;93.70;;;;;;5017849;28;20088;-90
2021/07/14 05:10:48;;;;;;;13.65;11.45;;;21.80;93.70;;;;;;5019934;28;20029;-90
2021/07/14 05:13:17;;;;;;;13.55;11.15;;;21.80;93.90;;;;;;5022416;28;20044;-90
2021/07/14 05:15:44;;;;;;;12.63;10.38;;;21.80;94.00;;;;;;5031629;28;20037;-91
2021/07/14 05:18:12;;;;;;;11.80;10.60;;;21.80;94.00;;;;;;5017447;28;20022;-91
2021/07/14 05:20:50;;;;;;;13.57;10.70;;;21.90;93.90;;;;;;5020527;28;20724;-91
2021/07/14 05:23:16;;;;;;;13.35;11.20;;;21.90;93.90;;;;;;5033727;28;20040;-91
2021/07/14 05:25:42;;;;;;;14.52;11.07;;;21.90;94.00;;;;;;5005582;28;20631;-91
2021/07/14 05:28:08;;;;;;;13.70;10.85;;;22.00;94.00;;;;;;5030443;28;20026;-91
2021/07/14 05:30:34;;;;;;;13.93;11.43;;;22.00;93.90;;;;;;5033757;28;20040;-91
2021/07/14 05:32:59;;;;;;;13.18;10.25;;;22.10;93.90;;;;;;5043823;28;20054;-91
2021/07/14 05:35:26;;;;;;;13.20;10.85;;;22.10;93.80;;;;;;5032297;28;20018;-91
2021/07/14 05:37:51;;;;;;;13.95;10.82;;;22.20;93.80;;;;;;5043126;28;20124;-91
2021/07/14 05:40:17;;;;;;;14.23;11.73;;;22.20;93.90;;;;;;5031616;28;20054;-91
2021/07/14 05:42:43;;;;;;;12.40;9.65;;;22.20;93.80;;;;;;5031893;28;20388;-91
2021/07/14 05:45:09;;;;;;;17.33;11.75;;;22.20;93.90;;;;;;4999157;28;20125;-91
2021/07/14 05:47:35;;;;;;;18.35;12.68;;;22.20;94.00;;;;;;5044168;28;20045;-91
2021/07/14 05:50:05;;;;;;;14.77;12.63;;;22.20;94.10;;;;;;5031713;28;20553;-91
2021/07/14 05:52:50;;;;;;;14.93;11.73;;;22.10;94.20;;;;;;5031737;28;20124;-90
2021/07/14 05:55:15;;;;;;;13.68;10.73;;;22.10;94.20;;;;;;5033383;28;20026;-91
2021/07/14 05:57:41;;;;;;;11.57;9.65;;;22.10;94.20;;;;;;5030883;28;20037;-91
2021/07/14 06:00:08;;;;;;;13.65;11.63;;;22.10;94.20;;;;;;5030349;28;20480;-91
2021/07/14 06:02:34;;;;;;;13.82;11.10;;;22.20;94.30;;;;;;5026138;28;20029;-92
2021/07/14 06:05:00;;;;;;;14.63;12.23;;;22.20;94.30;;;;;;5007156;28;20030;-91
2021/07/14 06:07:26;;;;;;;15.38;12.52;;;22.20;94.40;;;;;;5037875;28;20072;-92
2021/07/14 06:09:52;;;;;;;15.63;13.25;;;22.20;94.40;;;;;;5047911;28;20060;-92
2021/07/14 06:12:18;;;;;;;15.75;11.30;;;22.10;94.40;;;;;;5012306;28;20037;-91
2021/07/14 06:14:45;;;;;;;15.65;12.77;;;22.10;94.50;;;;;;5034654;28;20161;-91
2021/07/14 06:17:11;;;;;;;20.85;15.10;;;22.10;94.50;;;;;;5035279;28;20094;-92
2021/07/14 06:19:37;;;;;;;16.52;12.63;;;22.00;94.60;;;;;;5034541;28;20527;-91
2021/07/14 06:22:03;;;;;;;16.83;13.00;;;22.00;94.70;;;;;;5034120;28;20044;-92
2021/07/14 06:24:29;;;;;;;13.45;12.05;;;22.00;94.90;;;;;;5034370;28;20030;-92
2021/07/14 06:26:55;;;;;;;14.57;12.07;;;21.90;94.80;;;;;;5037323;28;20022;-91
2021/07/14 06:29:24;;;;;;;12.98;11.23;;;22.00;94.80;;;;;;5035076;28;20438;-91
2021/07/14 06:31:51;;;;;;;17.38;14.77;;;22.00;94.80;;;;;;5034263;28;20144;-92
2021/07/14 06:34:17;;;;;;;17.50;13.35;;;21.90;95.00;;;;;;5034405;28;20033;-92
2021/07/14 06:36:43;;;;;;;16.08;12.35;;;21.90;95.00;;;;;;5034626;28;20033;-91
2021/07/14 06:39:09;;;;;;;19.27;14.10;;;21.90;95.10;;;;;;5032959;28;20036;-91
2021/07/14 06:41:35;;;;;;;15.90;13.25;;;21.80;95.10;;;;;;5033140;28;20025;-91
2021/07/14 06:44:01;;;;;;;18.75;13.48;;;21.90;95.20;;;;;;5035361;28;20034;-92
2021/07/14 06:46:28;;;;;;;17.15;14.05;;;21.80;95.30;;;;;;5037927;28;20057;-91
2021/07/14 06:48:55;;;;;;;20.73;15.15;;;21.80;95.50;;;;;;5033613;28;20041;-91
2021/07/14 06:51:34;;;;;;;21.73;15.10;;;21.80;96.00;;;;;;5032024;28;20048;-91
2021/07/14 06:54:00;;;;;;;25.58;17.33;;;21.70;96.50;;;;;;5049289;28;20037;-92
2021/07/14 06:56:26;;;;;;;25.20;19.08;;;21.70;96.80;;;;;;5037885;28;20030;-90
2021/07/14 06:58:52;;;;;;;23.02;17.05;;;21.70;97.00;;;;;;5020322;28;20473;-92
2021/07/14 07:01:18;;;;;;;28.60;19.70;;;21.70;96.80;;;;;;5023069;28;20030;-92
2021/07/14 07:03:46;;;;;;;24.52;19.38;;;21.70;96.70;;;;;;5020001;28;20405;-91
2021/07/14 07:06:12;;;;;;;22.52;18.50;;;21.70;96.70;;;;;;5019794;28;20033;-91
2021/07/14 07:08:38;;;;;;;25.00;17.25;;;21.70;96.70;;;;;;5018733;28;20084;-92
2021/07/14 07:11:05;;;;;;;22.52;19.02;;;21.80;96.70;;;;;;5020746;28;20017;-92
2021/07/14 07:13:31;;;;;;;23.85;17.48;;;21.80;96.90;;;;;;5022686;28;20052;-92
2021/07/14 07:15:58;;;;;;;22.92;16.75;;;21.80;96.80;;;;;;5027507;28;20025;-92
2021/07/14 07:18:28;;;;;;;21.38;16.02;;;21.80;96.70;;;;;;5036872;28;20032;-92
2021/07/14 07:20:56;;;;;;;22.70;17.15;;;21.80;96.80;;;;;;5034072;28;20056;-91
2021/07/14 07:23:22;;;;;;;18.83;15.63;;;21.90;96.80;;;;;;5020826;28;20033;-92
2021/07/14 07:25:51;;;;;;;24.33;18.75;;;21.90;96.70;;;;;;5006450;28;20025;-92
2021/07/14 07:28:19;;;;;;;20.38;16.38;;;21.90;96.60;;;;;;5040279;28;20037;-92
2021/07/14 07:30:45;;;;;;;24.33;16.90;;;22.00;96.50;;;;;;5040529;28;20041;-92
2021/07/14 07:33:11;;;;;;;16.20;14.35;;;22.10;96.60;;;;;;5047438;28;20041;-92
2021/07/14 07:35:37;;;;;;;16.77;14.75;;;22.10;96.50;;;;;;5045098;28;20034;-92
2021/07/14 07:38:04;;;;;;;16.70;14.77;;;22.10;96.30;;;;;;5036877;28;20499;-92
2021/07/14 07:40:31;;;;;;;16.30;14.20;;;22.30;96.10;;;;;;5035075;28;20030;-93
2021/07/14 07:42:57;;;;;;;18.98;14.23;;;22.30;96.00;;;;;;5034559;28;20037;-93
2021/07/14 07:45:23;;;;;;;23.33;17.05;;;22.30;95.90;;;;;;5018840;28;20037;-92
2021/07/14 07:47:48;;;;;;;17.90;15.32;;;22.30;95.90;;;;;;5011044;28;20578;-92
2021/07/14 07:50:14;;;;;;;15.88;13.55;;;22.40;95.80;;;;;;5032189;28;20026;-92
2021/07/14 07:52:49;;;;;;;16.40;14.70;;;22.40;95.70;;;;;;5036059;28;20041;-92
2021/07/14 07:55:14;;;;;;;15.18;12.77;;;22.40;95.80;;;;;;5018783;28;20036;-92
2021/07/14 07:57:42;;;;;;;16.42;14.32;;;22.40;95.70;;;;;;5018856;28;20037;-93
2021/07/14 08:00:18;;;;;;;18.70;15.43;;;22.40;95.90;;;;;;5019157;28;20033;-92
2021/07/14 08:02:48;;;;;;;17.60;15.10;;;22.40;95.80;;;;;;5020495;28;20032;-92
2021/07/14 08:05:14;;;;;;;16.35;13.45;;;22.50;95.90;;;;;;5018785;28;20447;-92
2021/07/14 08:07:40;;;;;;;15.80;13.52;;;22.60;95.70;;;;;;5013356;28;20380;-93
2021/07/14 08:10:07;;;;;;;17.92;14.82;;;22.70;95.50;;;;;;5033578;28;20022;-93
2021/07/14 08:12:33;;;;;;;15.05;12.35;;;22.80;95.40;;;;;;5031735;28;20041;-92
2021/07/14 08:14:59;;;;;;;15.23;12.55;;;22.90;95.10;;;;;;5038343;28;20040;-92
2021/07/14 08:17:25;;;;;;;19.40;14.30;;;22.90;95.10;;;;;;5039679;28;20033;-92
2021/07/14 08:19:52;;;;;;;18.90;14.05;;;23.00;95.00;;;;;;5022155;28;20025;-92
2021/07/14 08:22:18;;;;;;;15.50;13.90;;;23.00;95.00;;;;;;5020592;28;20133;-92
2021/07/14 08:24:50;;;;;;;14.13;12.40;;;23.10;95.00;;;;;;5026038;28;20025;-91
2021/07/14 08:27:16;;;;;;;16.55;13.52;;;23.10;94.80;;;;;;5040427;28;20085;-91
2021/07/14 08:29:41;;;;;;;18.52;14.88;;;23.20;94.80;;;;;;5028495;28;20045;-92
2021/07/14 08:32:07;;;;;;;16.02;14.18;;;23.20;94.70;;;;;;5033978;28;20023;-90
2021/07/14 08:34:34;;;;;;;19.25;13.13;;;23.20;94.70;;;;;;5021885;28;20025;-92
2021/07/14 08:37:00;;;;;;;16.45;14.75;;;23.20;94.70;;;;;;5037382;28;20140;-92
2021/07/14 08:39:27;;;;;;;12.90;11.60;;;23.20;94.90;;;;;;5029744;28;20049;-93
2021/07/14 08:41:56;;;;;;;14.63;11.70;;;23.20;94.80;;;;;;5020021;28;20034;-92
2021/07/14 08:44:26;;;;;;;14.10;12.60;;;23.30;94.80;;;;;;5024412;28;20045;-93
2021/07/14 08:46:52;;;;;;;15.07;12.75;;;23.30;94.80;;;;;;5021047;28;20037;-93
2021/07/14 08:49:18;;;;;;;18.92;13.27;;;23.40;94.60;;;;;;5020673;28;20040;-91
2021/07/14 08:51:57;;;;;;;16.30;12.40;;;23.50;94.50;;;;;;5020637;28;20033;-90
2021/07/14 08:54:23;;;;;;;22.95;14.98;;;23.60;94.40;;;;;;5022114;28;20029;-93
2021/07/14 08:56:50;;;;;;;13.35;11.85;;;23.60;94.50;;;;;;5020789;28;20017;-92
2021/07/14 08:59:17;;;;;;;17.17;14.95;;;23.70;94.20;;;;;;5019854;28;20042;-92
2021/07/14 09:01:45;;;;;;;13.73;11.73;;;23.80;94.00;;;;;;5027608;28;20028;-91
2021/07/14 09:04:11;;;;;;;14.80;11.95;;;23.90;93.90;;;;;;5024723;28;20029;-92
2021/07/14 09:06:37;;;;;;;16.02;12.05;;;24.10;93.80;;;;;;5021351;28;20033;-93
2021/07/14 09:09:04;;;;;;;12.80;11.45;;;24.30;93.50;;;;;;5025754;28;20640;-91
2021/07/14 09:11:30;;;;;;;13.63;11.52;;;24.50;93.20;;;;;;5017834;28;20029;-93
2021/07/14 09:14:29;;;;;;;12.23;10.93;;;24.70;93.00;;;;;;5038530;28;20069;-91
2021/07/14 09:16:55;;;;;;;13.55;11.93;;;24.90;92.80;;;;;;5038045;28;20029;-91
2021/07/14 09:19:26;;;;;;;12.07;10.88;;;25.00;92.50;;;;;;5040893;28;20164;-90
2021/07/14 09:21:53;;;;;;;12.88;11.65;;;25.10;92.40;;;;;;5046922;28;20125;-91
2021/07/14 09:24:33;;;;;;;14.13;10.75;;;25.10;92.60;;;;;;5036405;28;20018;-91
2021/07/14 09:27:01;;;;;;;11.70;10.32;;;25.20;92.20;;;;;;5035771;28;20037;-92
2021/07/14 09:29:28;;;;;;;12.45;11.10;;;25.10;92.30;;;;;;5039257;28;20063;-92
2021/07/14 09:31:55;;;;;;;12.40;10.95;;;25.10;92.30;;;;;;5037295;28;20033;-91
2021/07/14 09:34:35;;;;;;;11.70;10.52;;;25.00;92.40;;;;;;5036536;28;20407;-91
2021/07/14 09:37:03;;;;;;;13.13;11.75;;;25.00;92.50;;;;;;5043468;28;20021;-90
2021/07/14 09:39:40;;;;;;;12.65;11.35;;;25.10;92.60;;;;;;5005502;28;20037;-91
2021/07/14 09:42:12;;;;;;;12.13;10.90;;;25.30;92.50;;;;;;5048101;28;20105;-90
2021/07/14 09:44:50;;;;;;;11.25;10.05;;;25.40;92.40;;;;;;5046602;28;20104;-89
2021/07/14 09:47:24;;;;;;;13.20;10.57;;;25.50;92.20;;;;;;5054737;28;20065;-90
2021/07/14 09:49:50;;;;;;;11.30;10.05;;;25.60;92.00;;;;;;5027789;28;20030;-90
2021/07/14 09:52:22;;;;;;;12.38;11.02;;;25.60;91.90;;;;;;5055438;28;20029;-91
2021/07/14 09:54:48;;;;;;;16.70;11.05;;;25.60;91.80;;;;;;5048747;28;20098;-92
2021/07/14 09:57:19;;;;;;;11.45;10.25;;;25.50;91.60;;;;;;5044565;28;20014;-91
2021/07/14 09:59:46;;;;;;;11.85;10.65;;;25.50;91.80;;;;;;5032842;28;20022;-91
2021/07/14 10:02:16;;;;;;;14.88;10.23;;;25.60;91.80;;;;;;5038299;28;20380;-91
2021/07/14 10:04:44;;;;;;;12.60;11.40;;;25.70;91.90;;;;;;5042891;28;20106;-92
2021/07/14 10:07:26;;;;;;;12.02;10.77;;;25.60;91.80;;;;;;5021827;28;20753;-92
2021/07/14 10:09:54;;;;;;;11.98;10.77;;;25.60;91.90;;;;;;5021504;28;20033;-91
2021/07/14 10:12:30;;;;;;;12.38;11.07;;;25.70;91.90;;;;;;5020959;28;20474;-91
2021/07/14 10:15:12;;;;;;;11.60;10.43;;;25.70;92.00;;;;;;5019908;28;20083;-92
2021/07/14 10:17:41;;;;;;;12.10;10.88;;;25.60;91.70;;;;;;5020008;28;20034;-92
2021/07/14 10:20:22;;;;;;;12.27;10.90;;;25.60;91.90;;;;;;5019524;28;20037;-92
2021/07/14 10:22:52;;;;;;;11.65;10.55;;;25.60;91.90;;;;;;4981543;28;20121;-93
2021/07/14 10:25:19;;;;;;;12.25;10.93;;;25.70;91.80;;;;;;4980655;28;20057;-92
2021/07/14 10:27:53;;;;;;;11.65;10.55;;;25.90;91.80;;;;;;4980931;28;20030;-93
2021/07/14 10:30:20;;;;;;;11.90;10.80;;;26.10;91.50;;;;;;4980966;28;20069;-92
2021/07/14 10:32:48;;;;;;;11.95;10.80;;;26.20;91.00;;;;;;4979915;28;20465;-92
2021/07/14 10:35:21;;;;;;;12.07;10.73;;;26.10;90.40;;;;;;4981181;28;20046;-92
2021/07/14 10:37:51;;;;;;;13.43;10.63;;;26.00;90.30;;;;;;4980540;28;20026;-92
2021/07/14 10:40:19;;;;;;;12.48;10.88;;;25.90;90.00;;;;;;4980708;28;20043;-92
2021/07/14 10:42:46;;;;;;;12.45;11.10;;;25.80;90.00;;;;;;4981346;28;20472;-93
2021/07/14 10:45:13;;;;;;;13.10;11.57;;;25.80;89.80;;;;;;4981646;28;20054;-93
2021/07/14 10:47:39;;;;;;;11.90;10.60;;;25.90;88.90;;;;;;5011184;28;20479;-91
2021/07/14 10:50:09;;;;;;;12.13;10.77;;;26.00;88.70;;;;;;5043772;28;20041;-93
2021/07/14 10:52:41;;;;;;;15.50;12.65;;;26.10;88.90;;;;;;5048397;28;20075;-90
2021/07/14 10:55:16;;;;;;;12.40;11.18;;;26.20;87.90;;;;;;5031460;28;20034;-90
2021/07/14 10:57:42;;;;;;;13.15;11.85;;;26.30;87.80;;;;;;5045559;28;20076;-93
2021/07/14 11:00:10;;;;;;;19.95;14.02;;;26.30;87.60;;;;;;5039127;28;20041;-91
2021/07/14 11:02:43;;;;;;;14.23;12.60;;;26.40;87.00;;;;;;5037842;28;20030;-91
2021/07/14 11:05:11;;;;;;;13.05;11.75;;;26.40;86.90;;;;;;5034456;28;20049;-91
2021/07/14 11:07:42;;;;;;;12.45;11.15;;;26.40;87.40;;;;;;5031338;28;20029;-91
2021/07/14 11:10:34;;;;;;;12.48;11.30;;;26.40;87.20;;;;;;5031171;28;20030;-91
2021/07/14 11:13:27;;;;;;;13.75;12.00;;;26.40;87.80;;;;;;5033194;28;20030;-90
2021/07/14 11:15:54;;;;;;;12.90;11.65;;;26.60;87.70;;;;;;5046555;28;20026;-91
2021/07/14 11:18:29;;;;;;;12.80;11.20;;;26.80;87.60;;;;;;5036731;28;20084;-91
2021/07/14 11:20:56;;;;;;;14.40;12.13;;;27.10;86.70;;;;;;5002772;28;20034;-91
2021/07/14 11:23:25;;;;;;;12.68;11.45;;;27.40;86.70;;;;;;5039051;28;20109;-91
2021/07/14 11:25:56;;;;;;;13.10;10.90;;;27.70;85.60;;;;;;5004056;28;20025;-91
2021/07/14 11:28:24;;;;;;;12.77;10.55;;;27.90;84.80;;;;;;5030923;28;20034;-91
2021/07/14 11:30:52;;;;;;;12.82;11.57;;;28.00;83.70;;;;;;5036222;28;20056;-92
2021/07/14 11:33:22;;;;;;;11.88;10.73;;;27.80;81.80;;;;;;5031857;28;20030;-90
2021/07/14 11:35:57;;;;;;;11.68;10.48;;;27.70;83.40;;;;;;5031556;28;20113;-91
2021/07/14 11:38:29;;;;;;;14.32;10.68;;;27.90;82.60;;;;;;5032196;28;20049;-91
2021/07/14 11:41:02;;;;;;;11.90;10.70;;;28.40;82.80;;;;;;5036769;28;20026;-92
2021/07/14 11:43:42;;;;;;;14.35;10.70;;;28.70;81.10;;;;;;5033135;28;20040;-91
2021/07/14 11:46:14;;;;;;;12.27;11.07;;;28.80;78.80;;;;;;5030479;28;20041;-91
2021/07/14 11:48:42;;;;;;;18.58;11.13;;;28.60;79.60;;;;;;5014660;28;20060;-91
2021/07/14 11:51:24;;;;;;;12.82;10.63;;;28.40;80.70;;;;;;5044029;28;20036;-91
2021/07/14 11:53:52;;;;;;;13.07;11.05;;;29.60;79.00;;;;;;5030799;28;20018;-92
2021/07/14 11:56:21;;;;;;;11.10;9.95;;;30.70;76.00;;;;;;5023669;28;20041;-91
2021/07/14 11:59:09;;;;;;;12.23;10.50;;;30.70;73.80;;;;;;5034498;28;20043;-91
2021/07/14 12:01:38;;;;;;;11.77;10.05;;;30.90;73.90;;;;;;5033218;28;20523;-93
2021/07/14 12:04:10;;;;;;;11.50;10.30;;;31.40;73.40;;;;;;5026433;28;20034;-92
2021/07/14 12:07:00;;;;;;;11.45;9.85;;;32.30;71.00;;;;;;5046561;28;20033;-92
2021/07/14 12:09:28;;;;;;;12.95;10.48;;;33.20;68.80;;;;;;5043910;28;20499;-92
2021/07/14 12:11:58;;;;;;;13.15;9.82;;;34.10;66.60;;;;;;5045517;28;20096;-92
2021/07/14 12:14:32;;;;;;;11.18;9.40;;;34.50;63.40;;;;;;5019002;28;20034;-91
2021/07/14 12:17:10;;;;;;;10.25;8.73;;;34.10;61.70;;;;;;5013168;28;20034;-92
2021/07/14 12:19:57;;;;;;;10.90;9.80;;;33.60;63.70;;;;;;5008113;28;20045;-92
2021/07/14 12:22:30;;;;;;;11.55;9.10;;;33.40;63.80;;;;;;5011303;28;20026;-92
2021/07/14 12:25:10;;;;;;;11.02;9.93;;;32.80;65.10;;;;;;5015333;28;20061;-91
2021/07/14 12:27:39;;;;;;;10.93;9.63;;;32.40;65.80;;;;;;5014397;28;20030;-92
2021/07/14 12:30:09;;;;;;;12.32;9.40;;;32.00;67.20;;;;;;5010559;28;20025;-92
2021/07/14 12:32:40;;;;;;;15.90;8.98;;;31.90;67.20;;;;;;5006683;28;20032;-92
2021/07/14 12:35:07;;;;;;;;;;;31.70;67.00;;;;;;5008844;28;20032;-92
2021/07/14 12:37:35;;;;;;;10.45;8.77;;;31.70;67.50;;;;;;5038656;28;19925;-93
2021/07/14 12:40:02;;;;;;;11.43;9.70;;;31.40;67.10;;;;;;5006158;28;20034;-92
2021/07/14 12:42:28;;;;;;;10.27;8.88;;;30.90;68.40;;;;;;5005181;28;20057;-92
2021/07/14 12:44:53;;;;;;;11.57;9.18;;;30.30;69.00;;;;;;5003879;28;20488;-92
2021/07/14 12:47:21;;;;;;;9.52;8.52;;;29.90;70.60;;;;;;5004625;28;20270;-92